East Taunton, Massachusetts
Current Conditions -  °F | °C
As of 7:52 PM on Saturday 25 Oct 2014 (Local Time) from KTAN Reporting Station
Clear Clear  
Wind Chill: 55°   Ceiling: Unl
Heat Index: 55°   Visibility: 10mi
Dew Point: 44°   Wind: 5mph
Humidity: 67%   Direction: 220°SW
Pressure: 29.6"   Gusts: NA
Location:  41.88°N, 71.03°W
Report Text: KTAN 252352Z AUTO 22004KT 10SM CLR 13/07 A2960 RMK AO2 SLP025 T01280067 10200 20128 53002
Loading
Personal Weather Stations






























Interactive Weather Map
Tropical Storm Tracking
New forecast layout! Learn more

10-Day Weather Forecast

Advertisements
Track Severe Weather on mobile